sensor_id;sensor_type;location;lat;lon;timestamp;pressure;altitude;pressure_sealevel;temperature;humidity
61906;BME280;47863;55.766;37.672;2024-03-23T00:56:01;98905.44;;;3.50;67.75
61906;BME280;47863;55.766;37.672;2024-03-23T00:58:27;98898.44;;;3.49;68.94
61906;BME280;47863;55.766;37.672;2024-03-23T01:00:52;98897.31;;;3.51;68.84
61906;BME280;47863;55.766;37.672;2024-03-23T01:03:19;98900.81;;;3.52;68.73
61906;BME280;47863;55.766;37.672;2024-03-23T01:05:45;98890.22;;;3.52;69.16
61906;BME280;47863;55.766;37.672;2024-03-23T01:08:10;98884.63;;;3.45;68.65
61906;BME280;47863;55.766;37.672;2024-03-23T01:10:37;98889.53;;;3.50;68.28
61906;BME280;47863;55.766;37.672;2024-03-23T01:13:02;98878.25;;;3.48;67.78
61906;BME280;47863;55.766;37.672;2024-03-23T01:15:28;98886.19;;;3.48;67.32
61906;BME280;47863;55.766;37.672;2024-03-23T01:17:54;98812.28;;;3.06;68.18
61906;BME280;47863;55.766;37.672;2024-03-23T01:20:19;98865.41;;;3.43;67.79
61906;BME280;47863;55.766;37.672;2024-03-23T01:22:45;98836.84;;;3.27;68.53
61906;BME280;47863;55.766;37.672;2024-03-23T01:25:11;98795.56;;;2.95;67.80
61906;BME280;47863;55.766;37.672;2024-03-23T01:27:38;98833.34;;;3.17;68.22
61906;BME280;47863;55.766;37.672;2024-03-23T01:30:05;98859.97;;;3.35;69.98
61906;BME280;47863;55.766;37.672;2024-03-23T01:32:31;98852.72;;;3.27;69.76
61906;BME280;47863;55.766;37.672;2024-03-23T01:34:56;98844.63;;;3.19;68.99
61906;BME280;47863;55.766;37.672;2024-03-23T01:37:22;98843.94;;;3.17;69.41
61906;BME280;47863;55.766;37.672;2024-03-23T01:39:48;98847.28;;;3.19;69.03
61906;BME280;47863;55.766;37.672;2024-03-23T01:42:14;98844.63;;;3.19;71.27
61906;BME280;47863;55.766;37.672;2024-03-23T01:44:40;98790.13;;;2.87;71.09
61906;BME280;47863;55.766;37.672;2024-03-23T01:47:06;98840.59;;;3.15;70.33
61906;BME280;47863;55.766;37.672;2024-03-23T01:49:34;98787.22;;;2.90;70.83
61906;BME280;47863;55.766;37.672;2024-03-23T01:52:01;98824.00;;;3.13;70.20
61906;BME280;47863;55.766;37.672;2024-03-23T01:54:28;98829.75;;;3.18;71.13
61906;BME280;47863;55.766;37.672;2024-03-23T01:56:54;98820.94;;;3.17;71.06
61906;BME280;47863;55.766;37.672;2024-03-23T01:59:20;98737.22;;;2.68;71.52
61906;BME280;47863;55.766;37.672;2024-03-23T02:01:46;98803.09;;;3.10;70.65
61906;BME280;47863;55.766;37.672;2024-03-23T02:04:13;98810.34;;;3.17;72.31
61906;BME280;47863;55.766;37.672;2024-03-23T02:06:39;98776.38;;;3.03;72.06
61906;BME280;47863;55.766;37.672;2024-03-23T02:09:04;98717.03;;;2.67;71.52
61906;BME280;47863;55.766;37.672;2024-03-23T02:11:30;98804.25;;;3.27;72.32
61906;BME280;47863;55.766;37.672;2024-03-23T02:13:56;98786.84;;;3.24;71.59
61906;BME280;47863;55.766;37.672;2024-03-23T02:16:22;98792.84;;;3.26;73.00
61906;BME280;47863;55.766;37.672;2024-03-23T02:18:48;98784.03;;;3.35;73.29
61906;BME280;47863;55.766;37.672;2024-03-23T02:21:15;98766.75;;;3.31;72.60
61906;BME280;47863;55.766;37.672;2024-03-23T02:23:41;98727.38;;;3.18;73.62
61906;BME280;47863;55.766;37.672;2024-03-23T02:26:06;98700.78;;;3.01;73.12
61906;BME280;47863;55.766;37.672;2024-03-23T02:28:32;98774.69;;;3.51;72.82
61906;BME280;47863;55.766;37.672;2024-03-23T02:30:58;98673.91;;;2.95;72.48
61906;BME280;47863;55.766;37.672;2024-03-23T02:33:25;98764.53;;;3.56;71.51
61906;BME280;47863;55.766;37.672;2024-03-23T02:35:55;98757.97;;;3.60;71.25
61906;BME280;47863;55.766;37.672;2024-03-23T02:38:23;98759.34;;;3.64;72.55
61906;BME280;47863;55.766;37.672;2024-03-23T02:40:50;98722.63;;;3.42;72.86
61906;BME280;47863;55.766;37.672;2024-03-23T02:43:15;98663.56;;;3.12;72.19
61906;BME280;47863;55.766;37.672;2024-03-23T02:45:41;98720.91;;;3.50;71.80
61906;BME280;47863;55.766;37.672;2024-03-23T02:48:07;98721.44;;;3.64;73.41
61906;BME280;47863;55.766;37.672;2024-03-23T02:50:33;98711.16;;;3.51;73.94
61906;BME280;47863;55.766;37.672;2024-03-23T02:52:59;98723.38;;;3.71;73.60
61906;BME280;47863;55.766;37.672;2024-03-23T02:55:24;98735.94;;;3.69;73.33
61906;BME280;47863;55.766;37.672;2024-03-23T02:57:50;98717.66;;;3.66;73.69
61906;BME280;47863;55.766;37.672;2024-03-23T03:00:16;98704.56;;;3.65;74.39
61906;BME280;47863;55.766;37.672;2024-03-23T03:02:41;98706.13;;;3.57;74.34
61906;BME280;47863;55.766;37.672;2024-03-23T03:05:07;98711.13;;;3.61;75.34
61906;BME280;47863;55.766;37.672;2024-03-23T03:07:34;98710.88;;;3.54;75.09
61906;BME280;47863;55.766;37.672;2024-03-23T03:10:00;98693.16;;;3.54;75.82
61906;BME280;47863;55.766;37.672;2024-03-23T03:12:25;98694.56;;;3.49;75.78
61906;BME280;47863;55.766;37.672;2024-03-23T03:14:51;98616.69;;;2.94;76.64
61906;BME280;47863;55.766;37.672;2024-03-23T03:17:17;98691.81;;;3.41;77.71
61906;BME280;47863;55.766;37.672;2024-03-23T03:19:43;98680.28;;;3.32;78.09
61906;BME280;47863;55.766;37.672;2024-03-23T03:22:08;98675.56;;;3.16;78.41
61906;BME280;47863;55.766;37.672;2024-03-23T03:24:34;98666.63;;;3.17;78.92
61906;BME280;47863;55.766;37.672;2024-03-23T03:27:00;98659.69;;;3.16;78.30
61906;BME280;47863;55.766;37.672;2024-03-23T03:29:26;98601.66;;;2.75;78.84
61906;BME280;47863;55.766;37.672;2024-03-23T03:31:59;98669.97;;;3.19;78.96
61906;BME280;47863;55.766;37.672;2024-03-23T03:34:24;98663.16;;;3.16;78.44
61906;BME280;47863;55.766;37.672;2024-03-23T03:36:50;98665.38;;;3.21;80.38
61906;BME280;47863;55.766;37.672;2024-03-23T03:39:15;98627.09;;;2.96;80.87
61906;BME280;47863;55.766;37.672;2024-03-23T03:41:41;98648.66;;;3.21;80.56
61906;BME280;47863;55.766;37.672;2024-03-23T03:44:07;98659.13;;;3.22;79.63
61906;BME280;47863;55.766;37.672;2024-03-23T03:46:32;98640.59;;;3.22;80.10
61906;BME280;47863;55.766;37.672;2024-03-23T03:48:58;98646.28;;;3.27;80.35
61906;BME280;47863;55.766;37.672;2024-03-23T03:51:24;98641.66;;;3.29;81.00
61906;BME280;47863;55.766;37.672;2024-03-23T03:53:49;98630.28;;;3.19;80.51
61906;BME280;47863;55.766;37.672;2024-03-23T03:56:15;98633.03;;;3.27;80.92
61906;BME280;47863;55.766;37.672;2024-03-23T03:58:40;98555.69;;;2.86;81.50
61906;BME280;47863;55.766;37.672;2024-03-23T04:01:06;98618.84;;;3.28;80.27
61906;BME280;47863;55.766;37.672;2024-03-23T04:03:32;98625.78;;;3.29;79.96
61906;BME280;47863;55.766;37.672;2024-03-23T04:05:57;98617.72;;;3.31;79.95
61906;BME280;47863;55.766;37.672;2024-03-23T04:08:24;98582.78;;;3.17;79.48
61906;BME280;47863;55.766;37.672;2024-03-23T04:10:49;98597.81;;;3.27;79.28
61906;BME280;47863;55.766;37.672;2024-03-23T04:13:15;98610.88;;;3.38;79.86
61906;BME280;47863;55.766;37.672;2024-03-23T04:15:42;98610.72;;;3.40;78.93
61906;BME280;47863;55.766;37.672;2024-03-23T04:18:08;98611.13;;;3.45;79.98
61906;BME280;47863;55.766;37.672;2024-03-23T04:20:33;98605.38;;;3.49;80.03
61906;BME280;47863;55.766;37.672;2024-03-23T04:22:59;98603.16;;;3.54;80.72
61906;BME280;47863;55.766;37.672;2024-03-23T04:25:25;98566.97;;;3.35;80.40
61906;BME280;47863;55.766;37.672;2024-03-23T04:27:51;98585.31;;;3.56;80.06
61906;BME280;47863;55.766;37.672;2024-03-23T04:30:17;98566.94;;;3.45;80.39
61906;BME280;47863;55.766;37.672;2024-03-23T04:32:43;98582.47;;;3.68;80.82
61906;BME280;47863;55.766;37.672;2024-03-23T04:35:09;98543.81;;;3.47;79.79
61906;BME280;47863;55.766;37.672;2024-03-23T04:37:36;98545.19;;;3.51;79.84
61906;BME280;47863;55.766;37.672;2024-03-23T04:40:02;98562.50;;;3.73;80.47
61906;BME280;47863;55.766;37.672;2024-03-23T04:42:31;98556.53;;;3.71;80.19
61906;BME280;47863;55.766;37.672;2024-03-23T04:44:57;98528.56;;;3.59;80.22
61906;BME280;47863;55.766;37.672;2024-03-23T04:47:22;98560.78;;;3.82;80.50
61906;BME280;47863;55.766;37.672;2024-03-23T04:49:48;98571.66;;;3.79;80.38
61906;BME280;47863;55.766;37.672;2024-03-23T04:52:14;98535.50;;;3.70;79.94
61906;BME280;47863;55.766;37.672;2024-03-23T04:54:40;98557.31;;;3.82;80.32
61906;BME280;47863;55.766;37.672;2024-03-23T04:57:06;98536.03;;;3.73;80.35
61906;BME280;47863;55.766;37.672;2024-03-23T04:59:32;98513.25;;;3.53;80.18
61906;BME280;47863;55.766;37.672;2024-03-23T05:01:58;98512.16;;;3.55;79.92
61906;BME280;47863;55.766;37.672;2024-03-23T05:04:24;98550.78;;;3.76;80.27
61906;BME280;47863;55.766;37.672;2024-03-23T05:06:50;98535.19;;;3.73;79.98
61906;BME280;47863;55.766;37.672;2024-03-23T05:09:15;98513.06;;;3.64;80.91
61906;BME280;47863;55.766;37.672;2024-03-23T05:11:42;98544.59;;;3.85;81.13
61906;BME280;47863;55.766;37.672;2024-03-23T05:14:07;98541.69;;;3.78;81.10
61906;BME280;47863;55.766;37.672;2024-03-23T05:16:33;98535.28;;;3.81;81.11
61906;BME280;47863;55.766;37.672;2024-03-23T05:18:59;98535.28;;;3.81;80.83
61906;BME280;47863;55.766;37.672;2024-03-23T05:21:26;98537.47;;;3.86;80.54
61906;BME280;47863;55.766;37.672;2024-03-23T05:23:53;98519.53;;;3.80;80.54
61906;BME280;47863;55.766;37.672;2024-03-23T05:26:18;98527.03;;;3.84;80.11
61906;BME280;47863;55.766;37.672;2024-03-23T05:28:44;98524.09;;;3.87;80.54
61906;BME280;47863;55.766;37.672;2024-03-23T05:31:10;98526.75;;;3.87;81.15
61906;BME280;47863;55.766;37.672;2024-03-23T05:33:36;98515.28;;;3.87;81.33
61906;BME280;47863;55.766;37.672;2024-03-23T05:36:05;98517.25;;;3.85;81.55
61906;BME280;47863;55.766;37.672;2024-03-23T05:38:30;98486.06;;;3.61;82.03
61906;BME280;47863;55.766;37.672;2024-03-23T05:41:00;98515.53;;;3.75;82.16
61906;BME280;47863;55.766;37.672;2024-03-23T05:43:26;98498.69;;;3.67;82.07
61906;BME280;47863;55.766;37.672;2024-03-23T05:45:59;98486.19;;;3.59;82.49
61906;BME280;47863;55.766;37.672;2024-03-23T05:48:26;98509.53;;;3.73;82.87
61906;BME280;47863;55.766;37.672;2024-03-23T05:50:52;98464.78;;;3.52;83.00
61906;BME280;47863;55.766;37.672;2024-03-23T05:53:19;98491.56;;;3.67;83.59
61906;BME280;47863;55.766;37.672;2024-03-23T05:55:46;98470.47;;;3.57;84.14
61906;BME280;47863;55.766;37.672;2024-03-23T05:58:15;98493.41;;;3.67;84.19
61906;BME280;47863;55.766;37.672;2024-03-23T06:00:43;98480.16;;;3.67;85.00
61906;BME280;47863;55.766;37.672;2024-03-23T06:03:09;98463.28;;;3.50;85.60
61906;BME280;47863;55.766;37.672;2024-03-23T06:05:36;98475.91;;;3.56;85.57
61906;BME280;47863;55.766;37.672;2024-03-23T06:08:02;98474.91;;;3.57;85.63
61906;BME280;47863;55.766;37.672;2024-03-23T06:10:28;98457.91;;;3.42;86.57
61906;BME280;47863;55.766;37.672;2024-03-23T06:12:54;98453.13;;;3.45;87.75
61906;BME280;47863;55.766;37.672;2024-03-23T06:15:23;98473.94;;;3.58;87.17
61906;BME280;47863;55.766;37.672;2024-03-23T06:17:54;98453.56;;;3.41;86.74
61906;BME280;47863;55.766;37.672;2024-03-23T06:20:20;98444.88;;;3.48;87.71
61906;BME280;47863;55.766;37.672;2024-03-23T06:22:46;98465.19;;;3.57;87.05
61906;BME280;47863;55.766;37.672;2024-03-23T06:25:11;98451.25;;;3.55;87.34
61906;BME280;47863;55.766;37.672;2024-03-23T06:27:38;98458.34;;;3.55;87.85
61906;BME280;47863;55.766;37.672;2024-03-23T06:30:05;98440.41;;;3.49;87.43
61906;BME280;47863;55.766;37.672;2024-03-23T06:32:32;98455.28;;;3.60;87.58
61906;BME280;47863;55.766;37.672;2024-03-23T06:34:57;98428.31;;;3.46;87.98
61906;BME280;47863;55.766;37.672;2024-03-23T06:37:23;98439.53;;;3.58;87.27
61906;BME280;47863;55.766;37.672;2024-03-23T06:39:49;98461.47;;;3.68;87.77
61906;BME280;47863;55.766;37.672;2024-03-23T06:42:14;98462.16;;;3.70;88.00
61906;BME280;47863;55.766;37.672;2024-03-23T06:44:40;98392.69;;;3.41;87.98
61906;BME280;47863;55.766;37.672;2024-03-23T06:47:06;98429.16;;;3.65;88.62
61906;BME280;47863;55.766;37.672;2024-03-23T06:49:31;98432.34;;;3.68;88.48
61906;BME280;47863;55.766;37.672;2024-03-23T06:51:57;98441.38;;;3.75;89.22
61906;BME280;47863;55.766;37.672;2024-03-23T06:54:24;98438.03;;;3.73;89.04
61906;BME280;47863;55.766;37.672;2024-03-23T06:56:50;98433.31;;;3.67;89.46
61906;BME280;47863;55.766;37.672;2024-03-23T06:59:15;98441.25;;;3.67;88.95
61906;BME280;47863;55.766;37.672;2024-03-23T07:01:41;98427.06;;;3.68;89.01
61906;BME280;47863;55.766;37.672;2024-03-23T07:04:07;98382.78;;;3.43;89.24
61906;BME280;47863;55.766;37.672;2024-03-23T07:06:33;98422.72;;;3.67;88.37
61906;BME280;47863;55.766;37.672;2024-03-23T07:08:59;98422.28;;;3.72;89.16
61906;BME280;47863;55.766;37.672;2024-03-23T07:11:25;98409.47;;;3.67;89.25
61906;BME280;47863;55.766;37.672;2024-03-23T07:13:51;98408.91;;;3.73;88.90
61906;BME280;47863;55.766;37.672;2024-03-23T07:16:17;98415.78;;;3.66;88.59
61906;BME280;47863;55.766;37.672;2024-03-23T07:18:43;98390.59;;;3.62;88.94
61906;BME280;47863;55.766;37.672;2024-03-23T07:21:09;98389.97;;;3.68;88.36
61906;BME280;47863;55.766;37.672;2024-03-23T07:23:35;98387.31;;;3.68;89.66
61906;BME280;47863;55.766;37.672;2024-03-23T07:26:02;98356.91;;;3.36;90.02
61906;BME280;47863;55.766;37.672;2024-03-23T07:28:29;98416.53;;;3.76;90.13
61906;BME280;47863;55.766;37.672;2024-03-23T07:31:05;98377.13;;;3.55;90.97
61906;BME280;47863;55.766;37.672;2024-03-23T07:33:32;98412.00;;;3.69;91.63
61906;BME280;47863;55.766;37.672;2024-03-23T07:35:59;98368.66;;;3.52;92.06
61906;BME280;47863;55.766;37.672;2024-03-23T07:38:28;98398.00;;;3.76;91.94
61906;BME280;47863;55.766;37.672;2024-03-23T07:41:10;98393.38;;;3.78;91.80
61906;BME280;47863;55.766;37.672;2024-03-23T07:43:38;98393.09;;;3.82;92.46
61906;BME280;47863;55.766;37.672;2024-03-23T07:46:04;98395.34;;;3.76;92.47
61906;BME280;47863;55.766;37.672;2024-03-23T07:48:31;98370.47;;;3.69;92.83
61906;BME280;47863;55.766;37.672;2024-03-23T07:53:27;98376.13;;;3.74;92.60
61906;BME280;47863;55.766;37.672;2024-03-23T07:58:22;98366.22;;;3.76;93.23
61906;BME280;47863;55.766;37.672;2024-03-23T08:00:47;98339.28;;;3.63;93.42
61906;BME280;47863;55.766;37.672;2024-03-23T08:03:13;98342.31;;;3.68;92.86
61906;BME280;47863;55.766;37.672;2024-03-23T08:05:38;98326.72;;;3.65;93.11
61906;BME280;47863;55.766;37.672;2024-03-23T08:08:04;98379.00;;;3.99;92.98
61906;BME280;47863;55.766;37.672;2024-03-23T08:10:30;98374.03;;;4.04;92.40
61906;BME280;47863;55.766;37.672;2024-03-23T08:12:55;98377.22;;;4.08;91.36
61906;BME280;47863;55.766;37.672;2024-03-23T08:15:21;98373.13;;;4.13;92.13
61906;BME280;47863;55.766;37.672;2024-03-23T08:17:47;98359.19;;;4.11;91.71
61906;BME280;47863;55.766;37.672;2024-03-23T08:20:12;98380.06;;;4.14;92.26
61906;BME280;47863;55.766;37.672;2024-03-23T08:22:38;98322.38;;;3.82;92.20
61906;BME280;47863;55.766;37.672;2024-03-23T08:25:04;98298.66;;;3.72;92.05
61906;BME280;47863;55.766;37.672;2024-03-23T08:27:30;98350.88;;;4.06;92.51
61906;BME280;47863;55.766;37.672;2024-03-23T08:29:56;98358.06;;;4.14;92.59
61906;BME280;47863;55.766;37.672;2024-03-23T08:32:21;98353.84;;;4.03;92.18
61906;BME280;47863;55.766;37.672;2024-03-23T08:34:47;98361.22;;;4.17;92.92
61906;BME280;47863;55.766;37.672;2024-03-23T08:37:12;98359.72;;;4.15;92.72
61906;BME280;47863;55.766;37.672;2024-03-23T08:39:38;98369.31;;;4.16;93.17
61906;BME280;47863;55.766;37.672;2024-03-23T08:42:03;98353.56;;;4.14;92.68
61906;BME280;47863;55.766;37.672;2024-03-23T08:44:29;98348.34;;;4.23;92.49
61906;BME280;47863;55.766;37.672;2024-03-23T08:46:58;98310.31;;;4.06;92.37
61906;BME280;47863;55.766;37.672;2024-03-23T08:49:24;98352.66;;;4.24;92.47
61906;BME280;47863;55.766;37.672;2024-03-23T08:51:49;98340.03;;;4.17;92.31
61906;BME280;47863;55.766;37.672;2024-03-23T08:54:15;98334.09;;;4.24;92.26
61906;BME280;47863;55.766;37.672;2024-03-23T08:56:41;98339.28;;;4.33;92.67
61906;BME280;47863;55.766;37.672;2024-03-23T08:59:06;98336.13;;;4.30;92.52
61906;BME280;47863;55.766;37.672;2024-03-23T09:01:32;98340.50;;;4.39;92.60
61906;BME280;47863;55.766;37.672;2024-03-23T09:03:57;98322.56;;;4.33;92.26
61906;BME280;47863;55.766;37.672;2024-03-23T09:06:23;98322.03;;;4.29;92.25
61906;BME280;47863;55.766;37.672;2024-03-23T09:08:48;98323.13;;;4.45;92.15
61906;BME280;47863;55.766;37.672;2024-03-23T09:11:14;98318.34;;;4.48;92.20
61906;BME280;47863;55.766;37.672;2024-03-23T09:13:40;98305.69;;;4.42;92.24
61906;BME280;47863;55.766;37.672;2024-03-23T09:16:07;98317.81;;;4.45;92.18
61906;BME280;47863;55.766;37.672;2024-03-23T09:18:35;98325.59;;;4.46;92.21
61906;BME280;47863;55.766;37.672;2024-03-23T09:21:02;98296.72;;;4.35;91.62
61906;BME280;47863;55.766;37.672;2024-03-23T09:23:28;98294.28;;;4.50;91.90
61906;BME280;47863;55.766;37.672;2024-03-23T09:25:53;98305.94;;;4.57;91.68
61906;BME280;47863;55.766;37.672;2024-03-23T09:28:19;98307.59;;;4.58;91.79
61906;BME280;47863;55.766;37.672;2024-03-23T09:30:44;98321.69;;;4.59;91.91
61906;BME280;47863;55.766;37.672;2024-03-23T09:33:11;98308.75;;;4.55;92.02
61906;BME280;47863;55.766;37.672;2024-03-23T09:35:41;98271.34;;;4.32;91.81
61906;BME280;47863;55.766;37.672;2024-03-23T09:38:07;98300.59;;;4.49;92.04
61906;BME280;47863;55.766;37.672;2024-03-23T09:40:35;98286.81;;;4.45;91.94
61906;BME280;47863;55.766;37.672;2024-03-23T09:43:00;98295.19;;;4.59;91.46
61906;BME280;47863;55.766;37.672;2024-03-23T09:45:27;98268.63;;;4.50;91.65
61906;BME280;47863;55.766;37.672;2024-03-23T09:47:55;98296.84;;;4.68;91.72
61906;BME280;47863;55.766;37.672;2024-03-23T09:50:22;98271.81;;;4.62;91.36
61906;BME280;47863;55.766;37.672;2024-03-23T09:52:48;98272.13;;;4.59;91.25
61906;BME280;47863;55.766;37.672;2024-03-23T09:55:14;98286.88;;;4.62;91.15
61906;BME280;47863;55.766;37.672;2024-03-23T09:57:40;98277.97;;;4.71;90.93
61906;BME280;47863;55.766;37.672;2024-03-23T10:00:06;98275.06;;;4.90;90.49
61906;BME280;47863;55.766;37.672;2024-03-23T10:02:36;98266.06;;;4.83;90.29
61906;BME280;47863;55.766;37.672;2024-03-23T10:05:02;98287.66;;;4.96;90.12
61906;BME280;47863;55.766;37.672;2024-03-23T10:07:30;98267.41;;;4.95;89.90
61906;BME280;47863;55.766;37.672;2024-03-23T10:09:56;98278.09;;;5.12;89.09
61906;BME280;47863;55.766;37.672;2024-03-23T10:12:23;98283.72;;;5.17;88.85
61906;BME280;47863;55.766;37.672;2024-03-23T10:14:49;98282.22;;;5.23;88.83
61906;BME280;47863;55.766;37.672;2024-03-23T10:17:22;98302.81;;;5.29;88.50
61906;BME280;47863;55.766;37.672;2024-03-23T10:19:52;98266.66;;;5.28;88.13
61906;BME280;47863;55.766;37.672;2024-03-23T10:22:19;98250.22;;;5.24;87.63
61906;BME280;47863;55.766;37.672;2024-03-23T10:24:45;98272.13;;;5.34;87.35
61906;BME280;47863;55.766;37.672;2024-03-23T10:27:20;98269.31;;;5.36;87.27
61906;BME280;47863;55.766;37.672;2024-03-23T10:29:46;98262.16;;;5.36;87.01
61906;BME280;47863;55.766;37.672;2024-03-23T10:32:13;98261.50;;;5.34;87.30
61906;BME280;47863;55.766;37.672;2024-03-23T10:34:39;98251.91;;;5.33;86.98
61906;BME280;47863;55.766;37.672;2024-03-23T10:37:06;98262.34;;;5.43;86.87
61906;BME280;47863;55.766;37.672;2024-03-23T10:39:39;98244.91;;;5.41;87.09
61906;BME280;47863;55.766;37.672;2024-03-23T10:42:07;98269.00;;;5.55;86.73
61906;BME280;47863;55.766;37.672;2024-03-23T10:44:36;98253.06;;;5.55;86.71
61906;BME280;47863;55.766;37.672;2024-03-23T10:47:03;98255.88;;;5.54;86.45
61906;BME280;47863;55.766;37.672;2024-03-23T10:49:29;98238.25;;;5.45;86.38
61906;BME280;47863;55.766;37.672;2024-03-23T10:52:05;98270.16;;;5.69;86.26
61906;BME280;47863;55.766;37.672;2024-03-23T10:54:31;98268.28;;;5.78;86.00
61906;BME280;47863;55.766;37.672;2024-03-23T10:57:18;98264.47;;;5.72;85.56
61906;BME280;47863;55.766;37.672;2024-03-23T10:59:45;98266.66;;;5.77;85.46
61906;BME280;47863;55.766;37.672;2024-03-23T11:02:21;98244.09;;;5.65;85.83
61906;BME280;47863;55.766;37.672;2024-03-23T11:04:47;98245.06;;;5.64;85.73
61906;BME280;47863;55.766;37.672;2024-03-23T11:09:50;98254.03;;;5.71;85.57
61906;BME280;47863;55.766;37.672;2024-03-23T11:14:47;98252.19;;;5.80;85.45
61906;BME280;47863;55.766;37.672;2024-03-23T11:17:20;98240.75;;;5.79;85.63
61906;BME280;47863;55.766;37.672;2024-03-23T11:20:06;98247.53;;;5.82;85.67
61906;BME280;47863;55.766;37.672;2024-03-23T11:25:20;98242.72;;;5.85;85.52
61906;BME280;47863;55.766;37.672;2024-03-23T11:27:47;98235.25;;;5.89;85.13
61906;BME280;47863;55.766;37.672;2024-03-23T11:32:48;98232.91;;;6.02;85.14
61906;BME280;47863;55.766;37.672;2024-03-23T11:35:30;98244.22;;;6.04;84.92
61906;BME280;47863;55.766;37.672;2024-03-23T11:38:11;98228.94;;;6.06;84.88
61906;BME280;47863;55.766;37.672;2024-03-23T11:40:47;98244.53;;;6.01;84.63
61906;BME280;47863;55.766;37.672;2024-03-23T11:43:14;98229.78;;;5.99;84.87
61906;BME280;47863;55.766;37.672;2024-03-23T11:45:47;98244.38;;;5.94;84.84
61906;BME280;47863;55.766;37.672;2024-03-23T11:48:15;98229.75;;;5.90;84.57
61906;BME280;47863;55.766;37.672;2024-03-23T11:50:45;98230.09;;;5.95;84.87
61906;BME280;47863;55.766;37.672;2024-03-23T11:53:17;98229.28;;;5.95;84.91
61906;BME280;47863;55.766;37.672;2024-03-23T11:55:44;98228.91;;;5.90;85.01
61906;BME280;47863;55.766;37.672;2024-03-23T11:58:11;98212.66;;;5.76;85.37
61906;BME280;47863;55.766;37.672;2024-03-23T12:00:36;98225.28;;;5.74;85.54
61906;BME280;47863;55.766;37.672;2024-03-23T12:03:03;98218.66;;;5.62;85.52
61906;BME280;47863;55.766;37.672;2024-03-23T12:05:29;98236.28;;;5.63;85.80
61906;BME280;47863;55.766;37.672;2024-03-23T12:08:14;98216.53;;;5.57;86.31
61906;BME280;47863;55.766;37.672;2024-03-23T12:10:40;98225.34;;;5.50;86.22
61906;BME280;47863;55.766;37.672;2024-03-23T12:13:05;98208.41;;;5.43;86.49
61906;BME280;47863;55.766;37.672;2024-03-23T12:15:31;98229.16;;;5.47;86.66
61906;BME280;47863;55.766;37.672;2024-03-23T12:18:07;98225.34;;;5.42;87.52
61906;BME280;47863;55.766;37.672;2024-03-23T12:20:33;98226.16;;;5.34;87.59
61906;BME280;47863;55.766;37.672;2024-03-23T12:23:06;98225.50;;;5.32;87.59
61906;BME280;47863;55.766;37.672;2024-03-23T12:25:32;98224.69;;;5.31;87.79
61906;BME280;47863;55.766;37.672;2024-03-23T12:27:59;98221.69;;;5.26;87.84
61906;BME280;47863;55.766;37.672;2024-03-23T12:30:24;98215.19;;;5.29;87.68
61906;BME280;47863;55.766;37.672;2024-03-23T12:32:50;98219.03;;;5.34;88.51
61906;BME280;47863;55.766;37.672;2024-03-23T12:35:15;98205.41;;;5.21;87.92
61906;BME280;47863;55.766;37.672;2024-03-23T12:37:41;98184.19;;;5.13;87.92
61906;BME280;47863;55.766;37.672;2024-03-23T12:40:07;98204.94;;;5.26;88.33
61906;BME280;47863;55.766;37.672;2024-03-23T12:42:33;98189.00;;;5.18;88.31
61906;BME280;47863;55.766;37.672;2024-03-23T12:44:58;98218.72;;;5.38;88.29
61906;BME280;47863;55.766;37.672;2024-03-23T12:47:24;98222.84;;;5.40;88.43
61906;BME280;47863;55.766;37.672;2024-03-23T12:49:50;98192.78;;;5.23;88.59
61906;BME280;47863;55.766;37.672;2024-03-23T12:52:17;98223.66;;;5.41;88.47
61906;BME280;47863;55.766;37.672;2024-03-23T12:54:43;98205.59;;;5.28;88.38
61906;BME280;47863;55.766;37.672;2024-03-23T12:57:08;98221.00;;;5.41;88.05
61906;BME280;47863;55.766;37.672;2024-03-23T12:59:34;98215.22;;;5.45;87.63
61906;BME280;47863;55.766;37.672;2024-03-23T13:02:01;98207.91;;;5.47;87.83
61906;BME280;47863;55.766;37.672;2024-03-23T13:04:26;98206.91;;;5.40;88.24
61906;BME280;47863;55.766;37.672;2024-03-23T13:06:52;98206.41;;;5.36;88.52
61906;BME280;47863;55.766;37.672;2024-03-23T13:09:17;98207.06;;;5.39;88.93
61906;BME280;47863;55.766;37.672;2024-03-23T13:11:43;98197.47;;;5.29;89.10
61906;BME280;47863;55.766;37.672;2024-03-23T13:14:09;98212.88;;;5.34;89.35
61906;BME280;47863;55.766;37.672;2024-03-23T13:16:35;98146.22;;;4.96;89.21
61906;BME280;47863;55.766;37.672;2024-03-23T13:19:01;98180.19;;;5.17;89.11
61906;BME280;47863;55.766;37.672;2024-03-23T13:21:26;98214.88;;;5.40;89.92
61906;BME280;47863;55.766;37.672;2024-03-23T13:23:52;98209.22;;;5.35;89.92
61906;BME280;47863;55.766;37.672;2024-03-23T13:26:17;98192.13;;;5.21;89.73
61906;BME280;47863;55.766;37.672;2024-03-23T13:28:43;98189.16;;;5.24;89.94
61906;BME280;47863;55.766;37.672;2024-03-23T13:31:10;98210.06;;;5.35;89.74
61906;BME280;47863;55.766;37.672;2024-03-23T13:33:35;98190.16;;;5.23;89.74
61906;BME280;47863;55.766;37.672;2024-03-23T13:36:01;98208.91;;;5.38;89.41
61906;BME280;47863;55.766;37.672;2024-03-23T13:38:28;98206.25;;;5.46;89.33
61906;BME280;47863;55.766;37.672;2024-03-23T13:40:54;98210.56;;;5.47;89.35
61906;BME280;47863;55.766;37.672;2024-03-23T13:43:20;98188.16;;;5.50;89.16
61906;BME280;47863;55.766;37.672;2024-03-23T13:45:52;98166.25;;;5.40;88.93
61906;BME280;47863;55.766;37.672;2024-03-23T13:48:28;98164.44;;;5.40;88.95
61906;BME280;47863;55.766;37.672;2024-03-23T13:51:02;98192.63;;;5.57;89.31
61906;BME280;47863;55.766;37.672;2024-03-23T13:53:29;98198.09;;;5.56;89.19
61906;BME280;47863;55.766;37.672;2024-03-23T13:55:55;98177.19;;;5.45;89.07
61906;BME280;47863;55.766;37.672;2024-03-23T13:58:21;98192.47;;;5.59;89.28
61906;BME280;47863;55.766;37.672;2024-03-23T14:00:47;98175.38;;;5.45;89.05
61906;BME280;47863;55.766;37.672;2024-03-23T14:03:13;98201.56;;;5.56;89.06
61906;BME280;47863;55.766;37.672;2024-03-23T14:05:40;98195.13;;;5.59;88.98
61906;BME280;47863;55.766;37.672;2024-03-23T14:08:07;98191.63;;;5.59;89.21